METAR AND TAF INFORMATION
METAR FOR EBAW
ADDS - METARS form results

(0244 UTC 14 July 2020)
Data provider http://aviationweather.gov/metar/data/
 
METAR text: EBAW 140220Z AUTO 22005KT CAVOK 17/11 Q1017
Conditions at: EBAW (ANTWERP/DEURNE , BE) observed 0220 UTC 14 July 2020
Temperature: 17.0°C (63°F)
Dewpoint: 11.0°C (52°F) [RH = 68%]
Pressure (altimeter): 30.03 inches Hg (1017.0 mb)
Winds: from the SW (220 degrees) at 6 MPH (5 knots; 2.6 m/s)
Visibility: 6 or more miles (10+ km)
Ceiling: ceiling and visibility are OK
Clouds: unknown
Weather: no significant weather observed at this time

METAR text: EBAW 140150Z AUTO 20004KT CAVOK 17/10 Q1017
Conditions at: EBAW (ANTWERP/DEURNE , BE) observed 0150 UTC 14 July 2020
Temperature: 17.0°C (63°F)
Dewpoint: 10.0°C (50°F) [RH = 63%]
Pressure (altimeter): 30.03 inches Hg (1017.0 mb)
Winds: from the SSW (200 degrees) at 5 MPH (4 knots; 2.1 m/s)
Visibility: 6 or more miles (10+ km)
Ceiling: ceiling and visibility are OK
Clouds: unknown
Weather: no significant weather observed at this time

Forecast for: EBAW (ANTWERP/DEURNE , BE)
Text: TAF EBAW 140220Z 1403/1412 24004KT CAVOK
Forecast period: 0300 to 0900 UTC 14 July 2020
Forecast type: FROM: standard forecast or significant change
Winds: from the WSW (240 degrees) at 5 MPH (4 knots; 2.1 m/s)
Visibility: 6 or more miles 10+ km)
Ceiling: unknown
Clouds: missing
Weather: NSW  (no significant weather)
Text: BECMG 1409/1411 BKN012
Forecast period: 0900 to 1200 UTC 14 July 2020
Forecast type: BECOMING: Conditions expected to become as follows by 1100 UTC 14 July 2020
Winds: from the WSW (240 degrees) at 5 MPH (4 knots; 2.1 m/s)
Visibility: 6 or more miles 10+ km)
Ceiling: 1200 feet AGL
Clouds: broken clouds at 1200 feet AGL
Weather: NSW  (no significant weather)
Text: TEMPO 1409/1412 4500 RADZ BKN007
Forecast period: 0900 to 1200 UTC 14 July 2020
Forecast type: TEMPORARY: The following changes expected for less than half the time period
Visibility: 2.80 miles (4.51 km)
Ceiling: 700 feet AGL
Clouds: broken clouds at 700 feet AGL
Weather: RA DZ  (moderate rain, moderate drizzle)

 AIRPORT MAP

 RUNWAY INFORMATION
Runway 11 Runway length 4954 ft Runway width 148 ft
Runway elevation 36 ft Runway displaced threshold 472 ft Runway heading 110
Runway 29 Runway length 4954 ft Runway width 148 ft
Runway elevation 39 ft Runway displaced threshold 0 ft Runway heading 290

 AIRPORT FREQUENCIES
Type APP Name BRUSSELS A Frequency 118.25 MHZ
Type ATIS Name Frequency 122.4 MHZ
Type GND Name ANTWERPEN Frequency 121.9 MHZ
Type TWR Name ANTWERPEN Frequency 135.2 MHZ

 AIRPORT NEAR NAVIGATION AIDS
Type VOR-DME Name Antwerpen Frequency 113500 KHZ
Type VOR-DME Name Nicky Frequency 117400 KHZ
Type NDB Name Antwerpen Frequency 355 KHZ
Type NDB Name Antwerp Frequency 309 KHZ



Powered by Virtual Airlines Manager [v2.6.2]